sensor_id;sensor_type;location;lat;lon;timestamp;P1;durP1;ratioP1;P2;durP2;ratioP2
39524;SDS011;25203;50.754;6.978;2023-07-20T00:01:02;10.82;;;3.85;;
39524;SDS011;25203;50.754;6.978;2023-07-20T00:03:09;19.42;;;4.65;;
39524;SDS011;25203;50.754;6.978;2023-07-20T00:05:12;8.98;;;4.60;;
39524;SDS011;25203;50.754;6.978;2023-07-20T00:07:13;9.40;;;3.70;;
39524;SDS011;25203;50.754;6.978;2023-07-20T00:09:13;6.75;;;3.83;;
39524;SDS011;25203;50.754;6.978;2023-07-20T00:11:14;9.05;;;3.75;;
39524;SDS011;25203;50.754;6.978;2023-07-20T00:13:15;9.63;;;4.35;;
39524;SDS011;25203;50.754;6.978;2023-07-20T00:15:16;8.60;;;4.10;;
39524;SDS011;25203;50.754;6.978;2023-07-20T00:17:16;10.75;;;4.93;;
39524;SDS011;25203;50.754;6.978;2023-07-20T00:19:17;11.80;;;4.70;;
39524;SDS011;25203;50.754;6.978;2023-07-20T00:21:17;7.22;;;4.65;;
39524;SDS011;25203;50.754;6.978;2023-07-20T00:23:18;15.25;;;5.32;;
39524;SDS011;25203;50.754;6.978;2023-07-20T00:25:22;10.23;;;4.90;;
39524;SDS011;25203;50.754;6.978;2023-07-20T00:27:23;12.25;;;5.07;;
39524;SDS011;25203;50.754;6.978;2023-07-20T00:29:24;8.45;;;5.07;;
39524;SDS011;25203;50.754;6.978;2023-07-20T00:31:25;8.88;;;4.82;;
39524;SDS011;25203;50.754;6.978;2023-07-20T00:33:26;9.75;;;4.78;;
39524;SDS011;25203;50.754;6.978;2023-07-20T00:35:27;10.32;;;4.78;;
39524;SDS011;25203;50.754;6.978;2023-07-20T00:37:28;9.45;;;4.72;;
39524;SDS011;25203;50.754;6.978;2023-07-20T00:39:29;13.32;;;4.97;;
39524;SDS011;25203;50.754;6.978;2023-07-20T00:41:29;7.35;;;4.53;;
39524;SDS011;25203;50.754;6.978;2023-07-20T00:43:31;6.72;;;4.43;;
39524;SDS011;25203;50.754;6.978;2023-07-20T00:45:32;9.00;;;4.97;;
39524;SDS011;25203;50.754;6.978;2023-07-20T00:47:33;7.10;;;4.18;;
39524;SDS011;25203;50.754;6.978;2023-07-20T00:49:34;11.18;;;4.50;;
39524;SDS011;25203;50.754;6.978;2023-07-20T00:51:35;8.30;;;4.80;;
39524;SDS011;25203;50.754;6.978;2023-07-20T00:53:36;6.80;;;4.28;;
39524;SDS011;25203;50.754;6.978;2023-07-20T00:55:36;8.00;;;4.22;;
39524;SDS011;25203;50.754;6.978;2023-07-20T00:57:37;8.57;;;4.40;;
39524;SDS011;25203;50.754;6.978;2023-07-20T00:59:38;9.30;;;4.60;;
39524;SDS011;25203;50.754;6.978;2023-07-20T01:01:39;7.50;;;4.68;;
39524;SDS011;25203;50.754;6.978;2023-07-20T01:03:40;7.65;;;4.35;;
39524;SDS011;25203;50.754;6.978;2023-07-20T01:05:42;7.47;;;4.85;;
39524;SDS011;25203;50.754;6.978;2023-07-20T01:08:05;7.80;;;4.78;;
39524;SDS011;25203;50.754;6.978;2023-07-20T01:10:17;8.75;;;4.63;;
39524;SDS011;25203;50.754;6.978;2023-07-20T01:12:25;8.57;;;4.90;;
39524;SDS011;25203;50.754;6.978;2023-07-20T01:14:29;8.20;;;4.90;;
39524;SDS011;25203;50.754;6.978;2023-07-20T01:16:32;7.63;;;5.10;;
39524;SDS011;25203;50.754;6.978;2023-07-20T01:18:33;9.25;;;4.60;;
39524;SDS011;25203;50.754;6.978;2023-07-20T01:20:33;11.88;;;5.47;;
39524;SDS011;25203;50.754;6.978;2023-07-20T01:29:43;6.38;;;4.20;;
39524;SDS011;25203;50.754;6.978;2023-07-20T01:31:55;7.78;;;4.57;;
39524;SDS011;25203;50.754;6.978;2023-07-20T01:33:58;10.57;;;5.25;;
39524;SDS011;25203;50.754;6.978;2023-07-20T01:36:01;7.38;;;4.97;;
39524;SDS011;25203;50.754;6.978;2023-07-20T01:38:03;5.40;;;4.68;;
39524;SDS011;25203;50.754;6.978;2023-07-20T01:40:04;9.85;;;5.28;;
39524;SDS011;25203;50.754;6.978;2023-07-20T01:42:06;9.32;;;5.40;;
39524;SDS011;25203;50.754;6.978;2023-07-20T01:44:07;6.03;;;4.55;;
39524;SDS011;25203;50.754;6.978;2023-07-20T01:46:08;7.55;;;4.65;;
39524;SDS011;25203;50.754;6.978;2023-07-20T01:48:09;9.27;;;4.82;;
39524;SDS011;25203;50.754;6.978;2023-07-20T01:50:09;7.40;;;5.13;;
39524;SDS011;25203;50.754;6.978;2023-07-20T01:52:10;9.57;;;4.68;;
39524;SDS011;25203;50.754;6.978;2023-07-20T01:54:11;9.95;;;4.85;;
39524;SDS011;25203;50.754;6.978;2023-07-20T01:56:11;7.85;;;5.35;;
39524;SDS011;25203;50.754;6.978;2023-07-20T01:58:12;10.68;;;5.55;;
39524;SDS011;25203;50.754;6.978;2023-07-20T02:00:13;10.23;;;5.05;;
39524;SDS011;25203;50.754;6.978;2023-07-20T02:02:13;7.78;;;4.85;;
39524;SDS011;25203;50.754;6.978;2023-07-20T02:04:14;12.27;;;5.75;;
39524;SDS011;25203;50.754;6.978;2023-07-20T02:06:15;7.72;;;4.55;;
39524;SDS011;25203;50.754;6.978;2023-07-20T02:08:15;7.88;;;4.55;;
39524;SDS011;25203;50.754;6.978;2023-07-20T02:10:16;7.85;;;4.93;;
39524;SDS011;25203;50.754;6.978;2023-07-20T02:12:17;9.88;;;4.88;;
39524;SDS011;25203;50.754;6.978;2023-07-20T02:14:17;7.78;;;5.47;;
39524;SDS011;25203;50.754;6.978;2023-07-20T02:16:18;9.80;;;4.47;;
39524;SDS011;25203;50.754;6.978;2023-07-20T02:18:18;8.55;;;5.00;;
39524;SDS011;25203;50.754;6.978;2023-07-20T02:20:19;10.52;;;4.85;;
39524;SDS011;25203;50.754;6.978;2023-07-20T02:22:20;5.35;;;4.25;;
39524;SDS011;25203;50.754;6.978;2023-07-20T02:24:21;10.63;;;4.68;;
39524;SDS011;25203;50.754;6.978;2023-07-20T02:26:22;12.68;;;5.25;;
39524;SDS011;25203;50.754;6.978;2023-07-20T02:28:23;9.65;;;5.05;;
39524;SDS011;25203;50.754;6.978;2023-07-20T02:30:24;11.15;;;5.47;;
39524;SDS011;25203;50.754;6.978;2023-07-20T02:32:24;9.20;;;4.95;;
39524;SDS011;25203;50.754;6.978;2023-07-20T02:34:25;7.40;;;5.00;;
39524;SDS011;25203;50.754;6.978;2023-07-20T02:36:26;6.85;;;4.43;;
39524;SDS011;25203;50.754;6.978;2023-07-20T02:38:26;7.30;;;4.63;;
39524;SDS011;25203;50.754;6.978;2023-07-20T02:40:27;8.77;;;4.95;;
39524;SDS011;25203;50.754;6.978;2023-07-20T02:42:27;10.05;;;5.07;;
39524;SDS011;25203;50.754;6.978;2023-07-20T02:44:28;7.05;;;4.80;;
39524;SDS011;25203;50.754;6.978;2023-07-20T02:46:29;7.10;;;4.68;;
39524;SDS011;25203;50.754;6.978;2023-07-20T02:48:32;8.30;;;4.93;;
39524;SDS011;25203;50.754;6.978;2023-07-20T02:50:32;8.02;;;4.93;;
39524;SDS011;25203;50.754;6.978;2023-07-20T02:52:34;8.70;;;4.80;;
39524;SDS011;25203;50.754;6.978;2023-07-20T02:54:35;8.48;;;5.35;;
39524;SDS011;25203;50.754;6.978;2023-07-20T02:56:35;11.07;;;4.75;;
39524;SDS011;25203;50.754;6.978;2023-07-20T02:58:39;9.00;;;5.15;;
39524;SDS011;25203;50.754;6.978;2023-07-20T03:00:43;9.93;;;5.05;;
39524;SDS011;25203;50.754;6.978;2023-07-20T03:02:44;8.95;;;4.78;;
39524;SDS011;25203;50.754;6.978;2023-07-20T03:04:47;9.93;;;4.70;;
39524;SDS011;25203;50.754;6.978;2023-07-20T03:06:48;11.68;;;5.13;;
39524;SDS011;25203;50.754;6.978;2023-07-20T03:08:48;9.85;;;4.80;;
39524;SDS011;25203;50.754;6.978;2023-07-20T03:10:53;11.63;;;4.53;;
39524;SDS011;25203;50.754;6.978;2023-07-20T03:12:54;10.93;;;4.70;;
39524;SDS011;25203;50.754;6.978;2023-07-20T03:14:55;9.07;;;4.93;;
39524;SDS011;25203;50.754;6.978;2023-07-20T03:16:57;11.77;;;4.50;;
39524;SDS011;25203;50.754;6.978;2023-07-20T03:18:57;9.32;;;4.50;;
39524;SDS011;25203;50.754;6.978;2023-07-20T03:20:58;8.70;;;4.22;;
39524;SDS011;25203;50.754;6.978;2023-07-20T03:22:59;9.13;;;4.50;;
39524;SDS011;25203;50.754;6.978;2023-07-20T03:24:59;8.68;;;4.45;;
39524;SDS011;25203;50.754;6.978;2023-07-20T03:27:00;7.70;;;4.32;;
39524;SDS011;25203;50.754;6.978;2023-07-20T03:29:01;8.57;;;4.10;;
39524;SDS011;25203;50.754;6.978;2023-07-20T03:31:01;4.90;;;4.20;;
39524;SDS011;25203;50.754;6.978;2023-07-20T03:33:02;9.68;;;4.55;;
39524;SDS011;25203;50.754;6.978;2023-07-20T03:35:04;13.40;;;4.18;;
39524;SDS011;25203;50.754;6.978;2023-07-20T03:37:05;7.22;;;3.97;;
39524;SDS011;25203;50.754;6.978;2023-07-20T03:39:05;9.23;;;4.00;;
39524;SDS011;25203;50.754;6.978;2023-07-20T03:41:06;7.95;;;4.35;;
39524;SDS011;25203;50.754;6.978;2023-07-20T03:43:07;11.90;;;5.00;;
39524;SDS011;25203;50.754;6.978;2023-07-20T03:45:07;9.90;;;4.30;;
39524;SDS011;25203;50.754;6.978;2023-07-20T03:47:08;11.50;;;4.50;;
39524;SDS011;25203;50.754;6.978;2023-07-20T03:49:09;9.95;;;5.25;;
39524;SDS011;25203;50.754;6.978;2023-07-20T03:51:10;7.75;;;4.50;;
39524;SDS011;25203;50.754;6.978;2023-07-20T03:53:11;5.82;;;4.38;;
39524;SDS011;25203;50.754;6.978;2023-07-20T03:55:12;11.27;;;4.70;;
39524;SDS011;25203;50.754;6.978;2023-07-20T03:57:12;6.97;;;4.70;;
39524;SDS011;25203;50.754;6.978;2023-07-20T03:59:13;9.90;;;5.38;;
39524;SDS011;25203;50.754;6.978;2023-07-20T04:01:14;12.77;;;5.10;;
39524;SDS011;25203;50.754;6.978;2023-07-20T04:03:17;7.30;;;4.60;;
39524;SDS011;25203;50.754;6.978;2023-07-20T04:05:18;8.65;;;5.07;;
39524;SDS011;25203;50.754;6.978;2023-07-20T04:07:19;8.93;;;4.45;;
39524;SDS011;25203;50.754;6.978;2023-07-20T04:09:20;11.38;;;5.00;;
39524;SDS011;25203;50.754;6.978;2023-07-20T04:11:20;8.68;;;4.57;;
39524;SDS011;25203;50.754;6.978;2023-07-20T04:13:21;11.35;;;4.75;;
39524;SDS011;25203;50.754;6.978;2023-07-20T04:15:22;8.15;;;4.10;;
39524;SDS011;25203;50.754;6.978;2023-07-20T04:17:22;12.30;;;5.05;;
39524;SDS011;25203;50.754;6.978;2023-07-20T04:19:23;10.45;;;4.43;;
39524;SDS011;25203;50.754;6.978;2023-07-20T04:21:25;7.93;;;4.47;;
39524;SDS011;25203;50.754;6.978;2023-07-20T04:23:26;7.30;;;3.80;;
39524;SDS011;25203;50.754;6.978;2023-07-20T04:25:27;6.80;;;4.80;;
39524;SDS011;25203;50.754;6.978;2023-07-20T04:27:28;10.48;;;4.68;;
39524;SDS011;25203;50.754;6.978;2023-07-20T04:29:28;9.55;;;5.18;;
39524;SDS011;25203;50.754;6.978;2023-07-20T04:31:29;6.18;;;4.20;;
39524;SDS011;25203;50.754;6.978;2023-07-20T04:33:32;9.07;;;4.35;;
39524;SDS011;25203;50.754;6.978;2023-07-20T04:35:49;10.02;;;4.28;;
39524;SDS011;25203;50.754;6.978;2023-07-20T04:37:53;10.23;;;5.43;;
39524;SDS011;25203;50.754;6.978;2023-07-20T04:39:54;10.00;;;4.93;;
39524;SDS011;25203;50.754;6.978;2023-07-20T04:41:55;8.77;;;4.63;;
39524;SDS011;25203;50.754;6.978;2023-07-20T04:43:55;7.72;;;5.13;;
39524;SDS011;25203;50.754;6.978;2023-07-20T04:45:56;8.85;;;4.63;;
39524;SDS011;25203;50.754;6.978;2023-07-20T04:47:56;10.15;;;4.47;;
39524;SDS011;25203;50.754;6.978;2023-07-20T04:49:57;12.55;;;4.97;;
39524;SDS011;25203;50.754;6.978;2023-07-20T04:51:58;7.72;;;4.60;;
39524;SDS011;25203;50.754;6.978;2023-07-20T04:53:58;15.20;;;5.43;;
39524;SDS011;25203;50.754;6.978;2023-07-20T04:55:59;10.95;;;4.72;;
39524;SDS011;25203;50.754;6.978;2023-07-20T04:58:00;10.63;;;5.68;;
39524;SDS011;25203;50.754;6.978;2023-07-20T05:00:01;13.90;;;5.05;;
39524;SDS011;25203;50.754;6.978;2023-07-20T05:02:03;13.38;;;5.47;;
39524;SDS011;25203;50.754;6.978;2023-07-20T05:04:04;16.45;;;6.28;;
39524;SDS011;25203;50.754;6.978;2023-07-20T05:06:04;11.80;;;5.30;;
39524;SDS011;25203;50.754;6.978;2023-07-20T05:08:05;13.95;;;6.88;;
39524;SDS011;25203;50.754;6.978;2023-07-20T05:10:06;9.85;;;6.03;;
39524;SDS011;25203;50.754;6.978;2023-07-20T05:12:07;12.32;;;6.68;;
39524;SDS011;25203;50.754;6.978;2023-07-20T05:14:08;9.48;;;6.43;;
39524;SDS011;25203;50.754;6.978;2023-07-20T05:16:08;11.82;;;7.07;;
39524;SDS011;25203;50.754;6.978;2023-07-20T05:18:09;16.00;;;6.18;;
39524;SDS011;25203;50.754;6.978;2023-07-20T05:20:10;10.38;;;6.07;;
39524;SDS011;25203;50.754;6.978;2023-07-20T05:22:13;13.88;;;6.63;;
39524;SDS011;25203;50.754;6.978;2023-07-20T05:24:14;17.33;;;6.78;;
39524;SDS011;25203;50.754;6.978;2023-07-20T05:26:14;13.05;;;6.35;;
39524;SDS011;25203;50.754;6.978;2023-07-20T05:28:15;11.95;;;7.00;;
39524;SDS011;25203;50.754;6.978;2023-07-20T05:30:16;14.32;;;7.47;;
39524;SDS011;25203;50.754;6.978;2023-07-20T05:32:17;14.18;;;7.68;;
39524;SDS011;25203;50.754;6.978;2023-07-20T05:34:17;15.13;;;7.93;;
39524;SDS011;25203;50.754;6.978;2023-07-20T05:36:18;14.30;;;7.57;;
39524;SDS011;25203;50.754;6.978;2023-07-20T05:38:19;17.35;;;7.60;;
39524;SDS011;25203;50.754;6.978;2023-07-20T05:40:20;16.33;;;7.63;;
39524;SDS011;25203;50.754;6.978;2023-07-20T05:42:21;14.10;;;8.43;;
39524;SDS011;25203;50.754;6.978;2023-07-20T05:44:21;15.43;;;8.82;;
39524;SDS011;25203;50.754;6.978;2023-07-20T05:46:22;11.32;;;8.25;;
39524;SDS011;25203;50.754;6.978;2023-07-20T05:48:24;14.25;;;8.57;;
39524;SDS011;25203;50.754;6.978;2023-07-20T05:50:25;13.98;;;7.90;;
39524;SDS011;25203;50.754;6.978;2023-07-20T05:52:25;19.42;;;9.48;;
39524;SDS011;25203;50.754;6.978;2023-07-20T05:54:26;16.23;;;8.52;;
39524;SDS011;25203;50.754;6.978;2023-07-20T05:56:27;12.60;;;7.68;;
39524;SDS011;25203;50.754;6.978;2023-07-20T05:58:28;19.52;;;8.13;;
39524;SDS011;25203;50.754;6.978;2023-07-20T06:00:28;13.50;;;8.88;;
39524;SDS011;25203;50.754;6.978;2023-07-20T06:02:29;15.55;;;8.13;;
39524;SDS011;25203;50.754;6.978;2023-07-20T06:04:29;13.90;;;7.90;;
39524;SDS011;25203;50.754;6.978;2023-07-20T06:06:30;11.55;;;7.43;;
39524;SDS011;25203;50.754;6.978;2023-07-20T06:08:31;14.52;;;8.27;;
39524;SDS011;25203;50.754;6.978;2023-07-20T06:10:31;16.80;;;8.63;;
39524;SDS011;25203;50.754;6.978;2023-07-20T06:12:32;14.40;;;8.45;;
39524;SDS011;25203;50.754;6.978;2023-07-20T06:14:33;13.15;;;8.07;;
39524;SDS011;25203;50.754;6.978;2023-07-20T06:16:34;10.13;;;7.30;;
39524;SDS011;25203;50.754;6.978;2023-07-20T06:18:35;12.75;;;7.93;;
39524;SDS011;25203;50.754;6.978;2023-07-20T06:20:35;17.13;;;7.35;;
39524;SDS011;25203;50.754;6.978;2023-07-20T06:22:36;16.35;;;7.63;;
39524;SDS011;25203;50.754;6.978;2023-07-20T06:24:37;14.23;;;7.47;;
39524;SDS011;25203;50.754;6.978;2023-07-20T06:26:37;13.35;;;7.50;;
39524;SDS011;25203;50.754;6.978;2023-07-20T06:28:39;12.50;;;8.00;;
39524;SDS011;25203;50.754;6.978;2023-07-20T06:30:39;12.65;;;7.70;;
39524;SDS011;25203;50.754;6.978;2023-07-20T06:32:40;12.65;;;6.50;;
39524;SDS011;25203;50.754;6.978;2023-07-20T06:34:41;15.80;;;8.00;;
39524;SDS011;25203;50.754;6.978;2023-07-20T06:36:41;12.68;;;6.97;;
39524;SDS011;25203;50.754;6.978;2023-07-20T06:38:42;15.05;;;7.15;;
39524;SDS011;25203;50.754;6.978;2023-07-20T06:40:43;11.35;;;6.50;;
39524;SDS011;25203;50.754;6.978;2023-07-20T06:42:43;12.15;;;8.15;;
39524;SDS011;25203;50.754;6.978;2023-07-20T06:44:44;17.80;;;7.03;;
39524;SDS011;25203;50.754;6.978;2023-07-20T06:46:45;15.02;;;7.35;;
39524;SDS011;25203;50.754;6.978;2023-07-20T06:48:46;13.20;;;7.30;;
39524;SDS011;25203;50.754;6.978;2023-07-20T06:50:46;9.70;;;7.00;;
39524;SDS011;25203;50.754;6.978;2023-07-20T06:52:47;10.50;;;6.07;;
39524;SDS011;25203;50.754;6.978;2023-07-20T06:54:48;10.82;;;6.45;;
39524;SDS011;25203;50.754;6.978;2023-07-20T06:56:48;14.93;;;7.57;;
39524;SDS011;25203;50.754;6.978;2023-07-20T06:58:49;13.35;;;7.95;;
39524;SDS011;25203;50.754;6.978;2023-07-20T07:00:49;14.10;;;7.38;;
39524;SDS011;25203;50.754;6.978;2023-07-20T07:02:50;14.10;;;7.45;;
39524;SDS011;25203;50.754;6.978;2023-07-20T07:04:51;11.23;;;6.85;;
39524;SDS011;25203;50.754;6.978;2023-07-20T07:06:51;10.63;;;6.00;;
39524;SDS011;25203;50.754;6.978;2023-07-20T07:08:52;13.45;;;6.25;;
39524;SDS011;25203;50.754;6.978;2023-07-20T07:10:53;13.07;;;7.57;;
39524;SDS011;25203;50.754;6.978;2023-07-20T07:12:53;10.07;;;6.95;;
39524;SDS011;25203;50.754;6.978;2023-07-20T07:14:54;12.15;;;7.95;;
39524;SDS011;25203;50.754;6.978;2023-07-20T07:16:54;8.45;;;6.72;;
39524;SDS011;25203;50.754;6.978;2023-07-20T07:18:55;11.98;;;8.02;;
39524;SDS011;25203;50.754;6.978;2023-07-20T07:20:55;15.93;;;7.95;;
39524;SDS011;25203;50.754;6.978;2023-07-20T07:22:56;18.17;;;7.25;;
39524;SDS011;25203;50.754;6.978;2023-07-20T07:24:57;14.57;;;7.57;;
39524;SDS011;25203;50.754;6.978;2023-07-20T07:26:57;8.88;;;6.22;;
39524;SDS011;25203;50.754;6.978;2023-07-20T07:28:58;12.57;;;6.80;;
39524;SDS011;25203;50.754;6.978;2023-07-20T07:30:59;9.88;;;6.20;;
39524;SDS011;25203;50.754;6.978;2023-07-20T07:32:59;9.15;;;6.47;;
39524;SDS011;25203;50.754;6.978;2023-07-20T07:35:00;12.93;;;6.70;;
39524;SDS011;25203;50.754;6.978;2023-07-20T07:37:00;9.27;;;6.38;;
39524;SDS011;25203;50.754;6.978;2023-07-20T07:39:01;10.80;;;5.50;;
39524;SDS011;25203;50.754;6.978;2023-07-20T07:41:02;14.63;;;4.82;;
39524;SDS011;25203;50.754;6.978;2023-07-20T07:43:02;11.02;;;5.10;;
39524;SDS011;25203;50.754;6.978;2023-07-20T07:45:03;13.07;;;5.53;;
39524;SDS011;25203;50.754;6.978;2023-07-20T07:47:04;9.23;;;5.55;;
39524;SDS011;25203;50.754;6.978;2023-07-20T07:49:05;11.40;;;5.43;;
39524;SDS011;25203;50.754;6.978;2023-07-20T07:51:12;10.80;;;7.00;;
39524;SDS011;25203;50.754;6.978;2023-07-20T07:53:13;12.55;;;6.65;;
39524;SDS011;25203;50.754;6.978;2023-07-20T07:55:14;10.18;;;5.55;;
39524;SDS011;25203;50.754;6.978;2023-07-20T07:57:16;10.48;;;5.80;;
39524;SDS011;25203;50.754;6.978;2023-07-20T07:59:17;9.20;;;5.85;;
39524;SDS011;25203;50.754;6.978;2023-07-20T08:01:18;13.85;;;5.53;;
39524;SDS011;25203;50.754;6.978;2023-07-20T08:03:22;9.10;;;4.90;;
39524;SDS011;25203;50.754;6.978;2023-07-20T08:05:24;8.35;;;4.55;;
39524;SDS011;25203;50.754;6.978;2023-07-20T08:07:26;5.35;;;4.22;;
39524;SDS011;25203;50.754;6.978;2023-07-20T08:09:26;5.25;;;4.32;;
39524;SDS011;25203;50.754;6.978;2023-07-20T08:11:27;10.27;;;4.03;;
39524;SDS011;25203;50.754;6.978;2023-07-20T08:13:30;9.27;;;4.75;;
39524;SDS011;25203;50.754;6.978;2023-07-20T08:15:32;5.63;;;3.65;;
39524;SDS011;25203;50.754;6.978;2023-07-20T08:17:33;8.68;;;4.45;;
39524;SDS011;25203;50.754;6.978;2023-07-20T08:19:33;8.15;;;4.00;;
39524;SDS011;25203;50.754;6.978;2023-07-20T08:21:37;5.97;;;3.20;;
39524;SDS011;25203;50.754;6.978;2023-07-20T08:23:38;5.60;;;3.08;;
39524;SDS011;25203;50.754;6.978;2023-07-20T08:25:39;4.35;;;2.58;;
39524;SDS011;25203;50.754;6.978;2023-07-20T08:27:43;4.78;;;2.75;;
39524;SDS011;25203;50.754;6.978;2023-07-20T08:29:46;4.03;;;2.15;;
39524;SDS011;25203;50.754;6.978;2023-07-20T08:31:46;4.95;;;2.08;;
39524;SDS011;25203;50.754;6.978;2023-07-20T08:33:47;5.03;;;2.33;;
39524;SDS011;25203;50.754;6.978;2023-07-20T08:35:48;3.38;;;2.25;;
39524;SDS011;25203;50.754;6.978;2023-07-20T08:37:49;5.30;;;1.70;;
39524;SDS011;25203;50.754;6.978;2023-07-20T08:39:50;5.60;;;2.17;;
39524;SDS011;25203;50.754;6.978;2023-07-20T08:41:50;2.72;;;1.58;;
39524;SDS011;25203;50.754;6.978;2023-07-20T08:43:54;5.30;;;2.42;;
39524;SDS011;25203;50.754;6.978;2023-07-20T08:45:56;4.35;;;2.28;;
39524;SDS011;25203;50.754;6.978;2023-07-20T08:48:00;3.95;;;2.28;;
39524;SDS011;25203;50.754;6.978;2023-07-20T08:50:04;2.95;;;2.00;;
39524;SDS011;25203;50.754;6.978;2023-07-20T08:52:07;2.90;;;1.80;;
39524;SDS011;25203;50.754;6.978;2023-07-20T08:54:08;3.05;;;1.75;;
39524;SDS011;25203;50.754;6.978;2023-07-20T08:56:10;5.53;;;1.83;;
39524;SDS011;25203;50.754;6.978;2023-07-20T08:58:13;3.58;;;1.58;;
39524;SDS011;25203;50.754;6.978;2023-07-20T09:00:15;4.60;;;1.83;;
39524;SDS011;25203;50.754;6.978;2023-07-20T09:02:17;5.55;;;2.58;;
39524;SDS011;25203;50.754;6.978;2023-07-20T09:04:19;3.25;;;1.38;;
39524;SDS011;25203;50.754;6.978;2023-07-20T09:06:19;5.70;;;1.70;;
39524;SDS011;25203;50.754;6.978;2023-07-20T09:08:20;3.58;;;1.73;;
39524;SDS011;25203;50.754;6.978;2023-07-20T09:10:21;3.50;;;1.40;;
39524;SDS011;25203;50.754;6.978;2023-07-20T09:12:23;2.08;;;1.40;;
39524;SDS011;25203;50.754;6.978;2023-07-20T09:14:24;4.05;;;1.85;;
39524;SDS011;25203;50.754;6.978;2023-07-20T09:16:24;4.72;;;2.00;;
39524;SDS011;25203;50.754;6.978;2023-07-20T09:18:26;6.65;;;1.73;;
39524;SDS011;25203;50.754;6.978;2023-07-20T09:20:30;4.35;;;1.50;;
39524;SDS011;25203;50.754;6.978;2023-07-20T09:22:31;5.03;;;2.00;;
39524;SDS011;25203;50.754;6.978;2023-07-20T09:24:32;3.08;;;1.40;;
39524;SDS011;25203;50.754;6.978;2023-07-20T09:26:35;3.03;;;1.92;;
39524;SDS011;25203;50.754;6.978;2023-07-20T09:30:43;4.55;;;2.10;;
39524;SDS011;25203;50.754;6.978;2023-07-20T09:32:44;1.73;;;1.50;;
39524;SDS011;25203;50.754;6.978;2023-07-20T09:34:46;3.42;;;1.40;;
39524;SDS011;25203;50.754;6.978;2023-07-20T09:36:47;2.67;;;1.45;;
39524;SDS011;25203;50.754;6.978;2023-07-20T09:38:47;2.67;;;1.60;;
39524;SDS011;25203;50.754;6.978;2023-07-20T09:40:50;2.58;;;1.70;;
39524;SDS011;25203;50.754;6.978;2023-07-20T09:42:52;2.75;;;1.60;;
39524;SDS011;25203;50.754;6.978;2023-07-20T09:45:00;2.70;;;1.60;;
39524;SDS011;25203;50.754;6.978;2023-07-20T09:47:02;3.67;;;1.35;;
39524;SDS011;25203;50.754;6.978;2023-07-20T09:49:03;3.38;;;1.52;;
39524;SDS011;25203;50.754;6.978;2023-07-20T09:51:09;6.82;;;1.80;;
39524;SDS011;25203;50.754;6.978;2023-07-20T09:53:12;4.18;;;1.80;;
39524;SDS011;25203;50.754;6.978;2023-07-20T09:55:14;2.47;;;1.58;;
39524;SDS011;25203;50.754;6.978;2023-07-20T09:57:16;6.03;;;1.58;;
39524;SDS011;25203;50.754;6.978;2023-07-20T09:59:16;3.15;;;1.90;;
39524;SDS011;25203;50.754;6.978;2023-07-20T10:01:18;5.72;;;1.83;;
39524;SDS011;25203;50.754;6.978;2023-07-20T10:03:22;3.17;;;1.65;;
39524;SDS011;25203;50.754;6.978;2023-07-20T10:05:27;3.95;;;1.98;;
39524;SDS011;25203;50.754;6.978;2023-07-20T10:07:33;2.97;;;1.92;;
39524;SDS011;25203;50.754;6.978;2023-07-20T10:09:37;5.70;;;1.98;;
39524;SDS011;25203;50.754;6.978;2023-07-20T10:11:43;3.55;;;2.10;;
39524;SDS011;25203;50.754;6.978;2023-07-20T10:13:51;4.53;;;2.00;;
39524;SDS011;25203;50.754;6.978;2023-07-20T10:16:03;5.20;;;1.92;;
39524;SDS011;25203;50.754;6.978;2023-07-20T10:18:14;2.75;;;1.70;;
39524;SDS011;25203;50.754;6.978;2023-07-20T10:20:21;4.10;;;1.60;;
39524;SDS011;25203;50.754;6.978;2023-07-20T10:22:26;4.38;;;1.65;;
39524;SDS011;25203;50.754;6.978;2023-07-20T10:24:27;3.08;;;1.60;;
39524;SDS011;25203;50.754;6.978;2023-07-20T10:26:28;4.63;;;1.60;;
39524;SDS011;25203;50.754;6.978;2023-07-20T10:28:29;2.83;;;1.55;;
39524;SDS011;25203;50.754;6.978;2023-07-20T10:30:29;2.97;;;1.52;;
39524;SDS011;25203;50.754;6.978;2023-07-20T10:32:30;2.13;;;1.50;;
39524;SDS011;25203;50.754;6.978;2023-07-20T10:34:31;2.70;;;1.50;;
39524;SDS011;25203;50.754;6.978;2023-07-20T10:36:32;2.30;;;1.52;;
39524;SDS011;25203;50.754;6.978;2023-07-20T10:38:54;2.35;;;1.33;;
39524;SDS011;25203;50.754;6.978;2023-07-20T10:40:56;3.83;;;1.65;;
39524;SDS011;25203;50.754;6.978;2023-07-20T10:42:58;4.45;;;1.52;;
39524;SDS011;25203;50.754;6.978;2023-07-20T10:45:00;3.38;;;1.83;;
39524;SDS011;25203;50.754;6.978;2023-07-20T10:47:02;3.47;;;1.38;;
39524;SDS011;25203;50.754;6.978;2023-07-20T10:49:08;4.07;;;1.70;;
39524;SDS011;25203;50.754;6.978;2023-07-20T10:51:11;2.28;;;1.55;;
39524;SDS011;25203;50.754;6.978;2023-07-20T10:53:16;2.17;;;1.20;;
39524;SDS011;25203;50.754;6.978;2023-07-20T10:55:19;2.65;;;1.48;;
39524;SDS011;25203;50.754;6.978;2023-07-20T10:57:22;4.10;;;1.23;;
39524;SDS011;25203;50.754;6.978;2023-07-20T11:01:29;3.20;;;1.52;;
39524;SDS011;25203;50.754;6.978;2023-07-20T11:03:31;3.03;;;1.20;;
39524;SDS011;25203;50.754;6.978;2023-07-20T11:07:38;3.00;;;1.38;;
39524;SDS011;25203;50.754;6.978;2023-07-20T11:09:39;2.65;;;1.30;;
39524;SDS011;25203;50.754;6.978;2023-07-20T11:11:41;5.28;;;1.58;;
39524;SDS011;25203;50.754;6.978;2023-07-20T11:18:11;7.15;;;1.30;;
39524;SDS011;25203;50.754;6.978;2023-07-20T11:20:12;2.55;;;1.40;;
39524;SDS011;25203;50.754;6.978;2023-07-20T11:22:16;2.13;;;1.40;;
39524;SDS011;25203;50.754;6.978;2023-07-20T11:24:17;5.00;;;1.60;;
39524;SDS011;25203;50.754;6.978;2023-07-20T11:26:18;3.85;;;1.48;;
39524;SDS011;25203;50.754;6.978;2023-07-20T11:28:19;4.25;;;1.40;;
39524;SDS011;25203;50.754;6.978;2023-07-20T11:30:20;3.35;;;1.65;;
39524;SDS011;25203;50.754;6.978;2023-07-20T11:32:21;3.45;;;1.85;;
39524;SDS011;25203;50.754;6.978;2023-07-20T11:34:22;5.57;;;1.70;;
39524;SDS011;25203;50.754;6.978;2023-07-20T11:36:23;2.53;;;1.52;;
39524;SDS011;25203;50.754;6.978;2023-07-20T11:38:24;6.88;;;1.83;;
39524;SDS011;25203;50.754;6.978;2023-07-20T11:40:24;3.83;;;1.77;;
39524;SDS011;25203;50.754;6.978;2023-07-20T11:42:25;2.50;;;1.50;;
39524;SDS011;25203;50.754;6.978;2023-07-20T11:44:26;2.65;;;1.30;;
39524;SDS011;25203;50.754;6.978;2023-07-20T11:46:27;5.70;;;1.60;;
39524;SDS011;25203;50.754;6.978;2023-07-20T11:48:29;2.30;;;1.63;;
39524;SDS011;25203;50.754;6.978;2023-07-20T11:50:30;4.45;;;1.50;;
39524;SDS011;25203;50.754;6.978;2023-07-20T11:52:30;1.80;;;1.20;;
39524;SDS011;25203;50.754;6.978;2023-07-20T11:54:32;1.45;;;1.20;;
39524;SDS011;25203;50.754;6.978;2023-07-20T11:56:34;3.22;;;1.30;;
39524;SDS011;25203;50.754;6.978;2023-07-20T11:58:34;2.53;;;1.55;;
39524;SDS011;25203;50.754;6.978;2023-07-20T12:00:36;3.03;;;1.40;;
39524;SDS011;25203;50.754;6.978;2023-07-20T12:02:39;5.03;;;1.42;;
39524;SDS011;25203;50.754;6.978;2023-07-20T12:04:39;2.75;;;1.27;;
39524;SDS011;25203;50.754;6.978;2023-07-20T12:06:40;2.60;;;1.30;;
39524;SDS011;25203;50.754;6.978;2023-07-20T12:08:43;8.82;;;1.60;;
39524;SDS011;25203;50.754;6.978;2023-07-20T12:10:44;2.53;;;1.20;;
39524;SDS011;25203;50.754;6.978;2023-07-20T12:12:46;2.42;;;1.65;;
39524;SDS011;25203;50.754;6.978;2023-07-20T12:14:47;2.33;;;1.52;;
39524;SDS011;25203;50.754;6.978;2023-07-20T12:16:52;2.72;;;1.60;;
39524;SDS011;25203;50.754;6.978;2023-07-20T12:19:14;3.67;;;1.40;;
39524;SDS011;25203;50.754;6.978;2023-07-20T12:21:15;2.85;;;1.50;;
39524;SDS011;25203;50.754;6.978;2023-07-20T12:23:20;3.45;;;1.58;;
39524;SDS011;25203;50.754;6.978;2023-07-20T12:25:20;2.30;;;1.33;;
39524;SDS011;25203;50.754;6.978;2023-07-20T12:27:21;1.67;;;1.33;;